sensor_id;sensor_type;location;lat;lon;timestamp;P1;durP1;ratioP1;P2;durP2;ratioP2
651;SDS011;310;48.490;9.200;2023-05-29T00:02:13;76.87;;;2.60;;
651;SDS011;310;48.490;9.200;2023-05-29T00:04:39;76.83;;;2.63;;
651;SDS011;310;48.490;9.200;2023-05-29T00:07:05;77.07;;;2.43;;
651;SDS011;310;48.490;9.200;2023-05-29T00:09:31;76.80;;;2.40;;
651;SDS011;310;48.490;9.200;2023-05-29T00:11:56;76.97;;;2.47;;
651;SDS011;310;48.490;9.200;2023-05-29T00:14:22;77.53;;;2.70;;
651;SDS011;310;48.490;9.200;2023-05-29T00:16:49;76.97;;;2.30;;
651;SDS011;310;48.490;9.200;2023-05-29T00:19:15;77.07;;;2.30;;
651;SDS011;310;48.490;9.200;2023-05-29T00:21:46;77.70;;;3.00;;
651;SDS011;310;48.490;9.200;2023-05-29T00:24:14;78.57;;;2.27;;
651;SDS011;310;48.490;9.200;2023-05-29T00:26:40;77.50;;;2.33;;
651;SDS011;310;48.490;9.200;2023-05-29T00:29:06;77.67;;;2.50;;
651;SDS011;310;48.490;9.200;2023-05-29T00:31:31;77.40;;;2.33;;
651;SDS011;310;48.490;9.200;2023-05-29T00:33:57;77.70;;;2.73;;
651;SDS011;310;48.490;9.200;2023-05-29T00:36:23;78.43;;;2.97;;
651;SDS011;310;48.490;9.200;2023-05-29T00:38:49;77.73;;;2.30;;
651;SDS011;310;48.490;9.200;2023-05-29T00:41:14;78.30;;;2.73;;
651;SDS011;310;48.490;9.200;2023-05-29T00:43:41;78.00;;;2.50;;
651;SDS011;310;48.490;9.200;2023-05-29T00:46:07;83.03;;;3.00;;
651;SDS011;310;48.490;9.200;2023-05-29T00:48:33;77.87;;;2.00;;
651;SDS011;310;48.490;9.200;2023-05-29T00:50:59;78.03;;;2.40;;
651;SDS011;310;48.490;9.200;2023-05-29T00:53:25;78.17;;;2.37;;
651;SDS011;310;48.490;9.200;2023-05-29T00:55:51;79.17;;;3.20;;
651;SDS011;310;48.490;9.200;2023-05-29T00:58:17;78.47;;;2.73;;
651;SDS011;310;48.490;9.200;2023-05-29T01:00:43;79.20;;;2.93;;
651;SDS011;310;48.490;9.200;2023-05-29T01:03:09;78.37;;;2.40;;
651;SDS011;310;48.490;9.200;2023-05-29T01:05:39;78.67;;;2.50;;
651;SDS011;310;48.490;9.200;2023-05-29T01:08:05;78.80;;;2.60;;
651;SDS011;310;48.490;9.200;2023-05-29T01:10:32;78.87;;;2.63;;
651;SDS011;310;48.490;9.200;2023-05-29T01:18:30;78.83;;;2.67;;
651;SDS011;310;48.490;9.200;2023-05-29T01:23:51;78.87;;;2.33;;
651;SDS011;310;48.490;9.200;2023-05-29T01:29:07;79.07;;;2.47;;
651;SDS011;310;48.490;9.200;2023-05-29T01:31:35;80.43;;;2.67;;
651;SDS011;310;48.490;9.200;2023-05-29T01:34:03;79.30;;;2.73;;
651;SDS011;310;48.490;9.200;2023-05-29T01:36:29;79.17;;;2.60;;
651;SDS011;310;48.490;9.200;2023-05-29T01:38:56;80.10;;;2.30;;
651;SDS011;310;48.490;9.200;2023-05-29T01:41:23;96.03;;;3.90;;
651;SDS011;310;48.490;9.200;2023-05-29T01:43:50;79.07;;;2.57;;
651;SDS011;310;48.490;9.200;2023-05-29T01:46:16;79.17;;;2.80;;
651;SDS011;310;48.490;9.200;2023-05-29T01:48:45;79.90;;;2.70;;
651;SDS011;310;48.490;9.200;2023-05-29T01:51:11;79.13;;;2.57;;
651;SDS011;310;48.490;9.200;2023-05-29T01:53:38;79.57;;;2.60;;
651;SDS011;310;48.490;9.200;2023-05-29T01:56:05;79.47;;;2.53;;
651;SDS011;310;48.490;9.200;2023-05-29T01:58:31;79.77;;;2.50;;
651;SDS011;310;48.490;9.200;2023-05-29T02:00:58;79.50;;;2.47;;
651;SDS011;310;48.490;9.200;2023-05-29T02:03:24;79.67;;;2.50;;
651;SDS011;310;48.490;9.200;2023-05-29T02:05:53;80.50;;;2.97;;
651;SDS011;310;48.490;9.200;2023-05-29T02:08:20;87.23;;;2.40;;
651;SDS011;310;48.490;9.200;2023-05-29T02:10:46;79.83;;;2.40;;
651;SDS011;310;48.490;9.200;2023-05-29T02:13:11;80.60;;;2.60;;
651;SDS011;310;48.490;9.200;2023-05-29T02:15:37;80.47;;;2.50;;
651;SDS011;310;48.490;9.200;2023-05-29T02:18:02;80.90;;;3.07;;
651;SDS011;310;48.490;9.200;2023-05-29T02:20:28;80.90;;;2.47;;
651;SDS011;310;48.490;9.200;2023-05-29T02:22:54;79.77;;;2.33;;
651;SDS011;310;48.490;9.200;2023-05-29T02:25:19;79.90;;;2.57;;
651;SDS011;310;48.490;9.200;2023-05-29T02:27:45;79.70;;;2.30;;
651;SDS011;310;48.490;9.200;2023-05-29T02:30:11;79.80;;;2.37;;
651;SDS011;310;48.490;9.200;2023-05-29T02:32:36;79.97;;;2.53;;
651;SDS011;310;48.490;9.200;2023-05-29T02:35:02;79.87;;;2.30;;
651;SDS011;310;48.490;9.200;2023-05-29T02:37:28;80.07;;;2.30;;
651;SDS011;310;48.490;9.200;2023-05-29T02:39:54;81.87;;;2.57;;
651;SDS011;310;48.490;9.200;2023-05-29T02:42:19;79.70;;;2.00;;
651;SDS011;310;48.490;9.200;2023-05-29T02:44:45;80.27;;;2.43;;
651;SDS011;310;48.490;9.200;2023-05-29T02:47:11;80.67;;;2.63;;
651;SDS011;310;48.490;9.200;2023-05-29T02:49:36;80.47;;;2.40;;
651;SDS011;310;48.490;9.200;2023-05-29T02:52:02;80.17;;;2.10;;
651;SDS011;310;48.490;9.200;2023-05-29T02:54:27;80.37;;;2.30;;
651;SDS011;310;48.490;9.200;2023-05-29T02:56:53;81.50;;;2.97;;
651;SDS011;310;48.490;9.200;2023-05-29T02:59:19;80.90;;;2.43;;
651;SDS011;310;48.490;9.200;2023-05-29T03:01:45;80.20;;;2.27;;
651;SDS011;310;48.490;9.200;2023-05-29T03:04:12;80.43;;;2.30;;
651;SDS011;310;48.490;9.200;2023-05-29T03:06:37;80.37;;;2.10;;
651;SDS011;310;48.490;9.200;2023-05-29T03:09:03;83.80;;;2.60;;
651;SDS011;310;48.490;9.200;2023-05-29T03:11:31;81.23;;;2.90;;
651;SDS011;310;48.490;9.200;2023-05-29T03:13:58;80.87;;;2.30;;
651;SDS011;310;48.490;9.200;2023-05-29T03:16:23;80.70;;;2.50;;
651;SDS011;310;48.490;9.200;2023-05-29T03:18:50;80.17;;;2.00;;
651;SDS011;310;48.490;9.200;2023-05-29T03:21:15;80.60;;;2.23;;
651;SDS011;310;48.490;9.200;2023-05-29T03:23:41;81.60;;;2.50;;
651;SDS011;310;48.490;9.200;2023-05-29T03:26:07;80.27;;;2.00;;
651;SDS011;310;48.490;9.200;2023-05-29T03:28:32;80.50;;;2.10;;
651;SDS011;310;48.490;9.200;2023-05-29T03:30:58;80.50;;;2.13;;
651;SDS011;310;48.490;9.200;2023-05-29T03:33:24;80.60;;;2.30;;
651;SDS011;310;48.490;9.200;2023-05-29T03:35:50;80.90;;;2.50;;
651;SDS011;310;48.490;9.200;2023-05-29T03:38:15;80.50;;;2.10;;
651;SDS011;310;48.490;9.200;2023-05-29T03:40:41;80.77;;;2.07;;
651;SDS011;310;48.490;9.200;2023-05-29T03:43:06;81.03;;;2.60;;
651;SDS011;310;48.490;9.200;2023-05-29T03:45:32;80.60;;;2.17;;
651;SDS011;310;48.490;9.200;2023-05-29T03:47:58;80.77;;;2.17;;
651;SDS011;310;48.490;9.200;2023-05-29T03:50:23;82.07;;;2.50;;
651;SDS011;310;48.490;9.200;2023-05-29T03:52:49;81.00;;;2.17;;
651;SDS011;310;48.490;9.200;2023-05-29T03:55:14;80.77;;;2.13;;
651;SDS011;310;48.490;9.200;2023-05-29T03:57:40;81.00;;;2.20;;
651;SDS011;310;48.490;9.200;2023-05-29T04:00:09;81.10;;;2.30;;
651;SDS011;310;48.490;9.200;2023-05-29T04:02:37;81.90;;;2.47;;
651;SDS011;310;48.490;9.200;2023-05-29T04:05:04;81.47;;;2.27;;
651;SDS011;310;48.490;9.200;2023-05-29T04:07:31;82.60;;;2.77;;
651;SDS011;310;48.490;9.200;2023-05-29T04:10:04;82.50;;;2.60;;
651;SDS011;310;48.490;9.200;2023-05-29T04:12:31;81.93;;;2.67;;
651;SDS011;310;48.490;9.200;2023-05-29T04:14:57;82.60;;;2.80;;
651;SDS011;310;48.490;9.200;2023-05-29T04:17:23;81.20;;;2.20;;
651;SDS011;310;48.490;9.200;2023-05-29T04:19:49;81.37;;;2.37;;
651;SDS011;310;48.490;9.200;2023-05-29T04:22:15;82.00;;;2.73;;
651;SDS011;310;48.490;9.200;2023-05-29T04:24:40;82.37;;;2.80;;
651;SDS011;310;48.490;9.200;2023-05-29T04:27:09;83.70;;;3.20;;
651;SDS011;310;48.490;9.200;2023-05-29T04:29:41;81.07;;;2.10;;
651;SDS011;310;48.490;9.200;2023-05-29T04:32:10;85.93;;;2.90;;
651;SDS011;310;48.490;9.200;2023-05-29T04:34:39;81.37;;;2.07;;
651;SDS011;310;48.490;9.200;2023-05-29T04:37:05;81.80;;;2.40;;
651;SDS011;310;48.490;9.200;2023-05-29T04:39:31;84.70;;;2.77;;
651;SDS011;310;48.490;9.200;2023-05-29T04:41:57;81.90;;;2.60;;
651;SDS011;310;48.490;9.200;2023-05-29T04:44:26;81.20;;;2.10;;
651;SDS011;310;48.490;9.200;2023-05-29T04:46:52;81.60;;;2.60;;
651;SDS011;310;48.490;9.200;2023-05-29T04:49:18;81.90;;;2.53;;
651;SDS011;310;48.490;9.200;2023-05-29T04:51:44;81.87;;;2.50;;
651;SDS011;310;48.490;9.200;2023-05-29T04:54:10;81.63;;;2.50;;
651;SDS011;310;48.490;9.200;2023-05-29T04:56:36;81.67;;;2.47;;
651;SDS011;310;48.490;9.200;2023-05-29T04:59:02;81.30;;;2.50;;
651;SDS011;310;48.490;9.200;2023-05-29T05:01:28;83.67;;;2.97;;
651;SDS011;310;48.490;9.200;2023-05-29T05:03:54;81.30;;;2.23;;
651;SDS011;310;48.490;9.200;2023-05-29T05:06:21;82.20;;;2.57;;
651;SDS011;310;48.490;9.200;2023-05-29T05:08:47;81.37;;;2.50;;
651;SDS011;310;48.490;9.200;2023-05-29T05:11:13;85.47;;;3.30;;
651;SDS011;310;48.490;9.200;2023-05-29T05:13:39;81.27;;;2.30;;
651;SDS011;310;48.490;9.200;2023-05-29T05:16:04;82.07;;;2.70;;
651;SDS011;310;48.490;9.200;2023-05-29T05:18:30;81.50;;;2.37;;
651;SDS011;310;48.490;9.200;2023-05-29T05:20:56;82.47;;;2.40;;
651;SDS011;310;48.490;9.200;2023-05-29T05:23:21;82.80;;;2.80;;
651;SDS011;310;48.490;9.200;2023-05-29T05:25:47;82.13;;;2.80;;
651;SDS011;310;48.490;9.200;2023-05-29T05:28:12;81.57;;;2.30;;
651;SDS011;310;48.490;9.200;2023-05-29T05:30:38;81.50;;;2.43;;
651;SDS011;310;48.490;9.200;2023-05-29T05:33:04;81.23;;;2.20;;
651;SDS011;310;48.490;9.200;2023-05-29T05:35:29;83.00;;;3.17;;
651;SDS011;310;48.490;9.200;2023-05-29T05:37:55;81.37;;;2.30;;
651;SDS011;310;48.490;9.200;2023-05-29T05:40:23;81.30;;;2.13;;
651;SDS011;310;48.490;9.200;2023-05-29T05:42:49;81.53;;;2.47;;
651;SDS011;310;48.490;9.200;2023-05-29T05:45:14;81.17;;;2.20;;
651;SDS011;310;48.490;9.200;2023-05-29T05:47:40;81.50;;;2.50;;
651;SDS011;310;48.490;9.200;2023-05-29T05:50:05;81.77;;;2.70;;
651;SDS011;310;48.490;9.200;2023-05-29T05:52:32;81.40;;;2.30;;
651;SDS011;310;48.490;9.200;2023-05-29T05:54:58;82.10;;;2.40;;
651;SDS011;310;48.490;9.200;2023-05-29T05:57:24;81.30;;;2.40;;
651;SDS011;310;48.490;9.200;2023-05-29T05:59:50;83.60;;;3.10;;
651;SDS011;310;48.490;9.200;2023-05-29T06:02:16;83.00;;;2.93;;
651;SDS011;310;48.490;9.200;2023-05-29T06:04:41;81.47;;;2.43;;
651;SDS011;310;48.490;9.200;2023-05-29T06:07:08;81.30;;;2.40;;
651;SDS011;310;48.490;9.200;2023-05-29T06:09:34;81.60;;;2.33;;
651;SDS011;310;48.490;9.200;2023-05-29T06:11:59;81.67;;;2.53;;
651;SDS011;310;48.490;9.200;2023-05-29T06:14:25;81.77;;;2.83;;
651;SDS011;310;48.490;9.200;2023-05-29T06:16:50;81.30;;;2.30;;
651;SDS011;310;48.490;9.200;2023-05-29T06:19:16;81.47;;;2.50;;
651;SDS011;310;48.490;9.200;2023-05-29T06:21:42;81.50;;;2.70;;
651;SDS011;310;48.490;9.200;2023-05-29T06:24:07;82.43;;;3.07;;
651;SDS011;310;48.490;9.200;2023-05-29T06:26:33;81.20;;;2.30;;
651;SDS011;310;48.490;9.200;2023-05-29T06:28:59;81.87;;;2.80;;
651;SDS011;310;48.490;9.200;2023-05-29T06:31:25;81.37;;;2.53;;
651;SDS011;310;48.490;9.200;2023-05-29T06:33:50;83.00;;;3.03;;
651;SDS011;310;48.490;9.200;2023-05-29T06:36:16;81.70;;;2.47;;
651;SDS011;310;48.490;9.200;2023-05-29T06:38:48;81.90;;;2.70;;
651;SDS011;310;48.490;9.200;2023-05-29T06:41:14;82.57;;;2.60;;
651;SDS011;310;48.490;9.200;2023-05-29T06:43:40;84.10;;;3.50;;
651;SDS011;310;48.490;9.200;2023-05-29T06:46:05;82.60;;;3.30;;
651;SDS011;310;48.490;9.200;2023-05-29T06:48:34;81.60;;;2.67;;
651;SDS011;310;48.490;9.200;2023-05-29T06:51:00;81.67;;;2.70;;
651;SDS011;310;48.490;9.200;2023-05-29T06:53:26;82.17;;;2.60;;
651;SDS011;310;48.490;9.200;2023-05-29T06:55:52;83.70;;;3.43;;
651;SDS011;310;48.490;9.200;2023-05-29T06:58:18;81.83;;;2.70;;
651;SDS011;310;48.490;9.200;2023-05-29T07:00:44;81.47;;;2.40;;
651;SDS011;310;48.490;9.200;2023-05-29T07:03:09;81.07;;;2.23;;
651;SDS011;310;48.490;9.200;2023-05-29T07:05:35;81.60;;;2.97;;
651;SDS011;310;48.490;9.200;2023-05-29T07:08:01;81.07;;;2.53;;
651;SDS011;310;48.490;9.200;2023-05-29T07:10:26;81.67;;;2.73;;
651;SDS011;310;48.490;9.200;2023-05-29T07:12:52;80.57;;;2.40;;
651;SDS011;310;48.490;9.200;2023-05-29T07:15:18;81.47;;;2.70;;
651;SDS011;310;48.490;9.200;2023-05-29T07:17:43;82.60;;;2.70;;
651;SDS011;310;48.490;9.200;2023-05-29T07:20:09;84.07;;;2.90;;
651;SDS011;310;48.490;9.200;2023-05-29T07:22:35;81.27;;;2.73;;
651;SDS011;310;48.490;9.200;2023-05-29T07:25:01;80.87;;;2.73;;
651;SDS011;310;48.490;9.200;2023-05-29T07:27:28;80.00;;;2.10;;
651;SDS011;310;48.490;9.200;2023-05-29T07:29:54;80.47;;;2.60;;
651;SDS011;310;48.490;9.200;2023-05-29T07:32:20;80.07;;;2.30;;
651;SDS011;310;48.490;9.200;2023-05-29T07:34:46;80.17;;;2.43;;
651;SDS011;310;48.490;9.200;2023-05-29T07:37:14;80.20;;;2.50;;
651;SDS011;310;48.490;9.200;2023-05-29T07:39:40;80.70;;;2.40;;
651;SDS011;310;48.490;9.200;2023-05-29T07:42:07;80.80;;;2.57;;
651;SDS011;310;48.490;9.200;2023-05-29T07:44:32;79.97;;;2.40;;
651;SDS011;310;48.490;9.200;2023-05-29T07:46:58;80.03;;;2.33;;
651;SDS011;310;48.490;9.200;2023-05-29T07:49:24;81.20;;;3.10;;
651;SDS011;310;48.490;9.200;2023-05-29T07:51:49;79.97;;;2.50;;
651;SDS011;310;48.490;9.200;2023-05-29T07:54:15;80.10;;;2.73;;
651;SDS011;310;48.490;9.200;2023-05-29T07:56:43;80.37;;;2.70;;
651;SDS011;310;48.490;9.200;2023-05-29T07:59:09;79.80;;;2.50;;
651;SDS011;310;48.490;9.200;2023-05-29T08:01:35;80.57;;;2.70;;
651;SDS011;310;48.490;9.200;2023-05-29T08:04:02;79.97;;;2.40;;
651;SDS011;310;48.490;9.200;2023-05-29T08:06:27;80.27;;;2.37;;
651;SDS011;310;48.490;9.200;2023-05-29T08:08:53;79.80;;;2.57;;
651;SDS011;310;48.490;9.200;2023-05-29T08:11:19;80.13;;;2.63;;
651;SDS011;310;48.490;9.200;2023-05-29T08:13:46;80.10;;;2.40;;
651;SDS011;310;48.490;9.200;2023-05-29T08:16:11;79.67;;;2.23;;
651;SDS011;310;48.490;9.200;2023-05-29T08:18:39;80.13;;;2.60;;
651;SDS011;310;48.490;9.200;2023-05-29T08:21:05;79.87;;;2.63;;
651;SDS011;310;48.490;9.200;2023-05-29T08:23:31;79.93;;;2.40;;
651;SDS011;310;48.490;9.200;2023-05-29T08:25:57;79.93;;;2.77;;
651;SDS011;310;48.490;9.200;2023-05-29T08:28:22;79.40;;;2.37;;
651;SDS011;310;48.490;9.200;2023-05-29T08:30:48;79.00;;;2.27;;
651;SDS011;310;48.490;9.200;2023-05-29T08:33:14;79.10;;;2.40;;
651;SDS011;310;48.490;9.200;2023-05-29T08:35:40;79.10;;;2.40;;
651;SDS011;310;48.490;9.200;2023-05-29T08:38:06;78.73;;;2.20;;
651;SDS011;310;48.490;9.200;2023-05-29T08:40:31;79.27;;;2.40;;
651;SDS011;310;48.490;9.200;2023-05-29T08:42:58;78.87;;;2.60;;
651;SDS011;310;48.490;9.200;2023-05-29T08:45:28;79.30;;;2.40;;
651;SDS011;310;48.490;9.200;2023-05-29T08:47:55;78.40;;;2.50;;
651;SDS011;310;48.490;9.200;2023-05-29T08:50:25;79.80;;;2.80;;
651;SDS011;310;48.490;9.200;2023-05-29T08:52:51;82.90;;;3.07;;
651;SDS011;310;48.490;9.200;2023-05-29T08:55:17;78.33;;;2.50;;
651;SDS011;310;48.490;9.200;2023-05-29T08:57:43;78.27;;;2.53;;
651;SDS011;310;48.490;9.200;2023-05-29T09:00:09;78.70;;;2.30;;
651;SDS011;310;48.490;9.200;2023-05-29T09:02:45;78.77;;;2.70;;
651;SDS011;310;48.490;9.200;2023-05-29T09:05:11;78.27;;;2.30;;
651;SDS011;310;48.490;9.200;2023-05-29T09:07:37;77.80;;;2.63;;
651;SDS011;310;48.490;9.200;2023-05-29T09:10:07;78.00;;;2.43;;
651;SDS011;310;48.490;9.200;2023-05-29T09:12:34;77.67;;;2.30;;
651;SDS011;310;48.490;9.200;2023-05-29T09:15:00;77.67;;;2.27;;
651;SDS011;310;48.490;9.200;2023-05-29T09:17:30;77.57;;;2.43;;
651;SDS011;310;48.490;9.200;2023-05-29T09:20:00;81.10;;;2.70;;
651;SDS011;310;48.490;9.200;2023-05-29T09:22:25;78.97;;;2.83;;
651;SDS011;310;48.490;9.200;2023-05-29T09:24:51;77.37;;;2.20;;
651;SDS011;310;48.490;9.200;2023-05-29T09:27:17;79.17;;;2.70;;
651;SDS011;310;48.490;9.200;2023-05-29T09:29:44;78.67;;;2.70;;
651;SDS011;310;48.490;9.200;2023-05-29T09:32:12;77.20;;;2.17;;
651;SDS011;310;48.490;9.200;2023-05-29T09:34:39;77.23;;;2.30;;
651;SDS011;310;48.490;9.200;2023-05-29T09:37:07;77.57;;;2.53;;
651;SDS011;310;48.490;9.200;2023-05-29T09:39:46;77.70;;;2.57;;
651;SDS011;310;48.490;9.200;2023-05-29T09:42:13;77.43;;;2.43;;
651;SDS011;310;48.490;9.200;2023-05-29T09:44:41;77.40;;;2.47;;
651;SDS011;310;48.490;9.200;2023-05-29T09:47:07;76.63;;;2.20;;
651;SDS011;310;48.490;9.200;2023-05-29T09:49:33;76.50;;;2.23;;
651;SDS011;310;48.490;9.200;2023-05-29T09:51:59;76.67;;;2.47;;
651;SDS011;310;48.490;9.200;2023-05-29T09:54:29;76.37;;;2.33;;
651;SDS011;310;48.490;9.200;2023-05-29T09:56:55;78.07;;;2.50;;
651;SDS011;310;48.490;9.200;2023-05-29T09:59:23;77.03;;;2.63;;
651;SDS011;310;48.490;9.200;2023-05-29T10:01:49;76.00;;;2.40;;
651;SDS011;310;48.490;9.200;2023-05-29T10:04:30;76.10;;;2.67;;
651;SDS011;310;48.490;9.200;2023-05-29T10:07:00;75.40;;;2.30;;
651;SDS011;310;48.490;9.200;2023-05-29T10:09:31;75.37;;;2.40;;
651;SDS011;310;48.490;9.200;2023-05-29T10:11:58;75.47;;;2.30;;
651;SDS011;310;48.490;9.200;2023-05-29T10:14:29;75.60;;;2.80;;
651;SDS011;310;48.490;9.200;2023-05-29T10:16:56;74.90;;;2.60;;
651;SDS011;310;48.490;9.200;2023-05-29T10:19:27;74.80;;;2.83;;
651;SDS011;310;48.490;9.200;2023-05-29T10:21:54;74.20;;;1.73;;
651;SDS011;310;48.490;9.200;2023-05-29T10:24:22;74.70;;;2.30;;
651;SDS011;310;48.490;9.200;2023-05-29T10:26:49;73.83;;;2.10;;
651;SDS011;310;48.490;9.200;2023-05-29T10:29:37;73.57;;;2.07;;
651;SDS011;310;48.490;9.200;2023-05-29T10:32:27;73.80;;;2.20;;
651;SDS011;310;48.490;9.200;2023-05-29T10:35:12;73.70;;;2.17;;
651;SDS011;310;48.490;9.200;2023-05-29T10:37:48;73.47;;;2.20;;
651;SDS011;310;48.490;9.200;2023-05-29T10:40:23;73.70;;;2.30;;
651;SDS011;310;48.490;9.200;2023-05-29T10:42:50;73.40;;;2.20;;
651;SDS011;310;48.490;9.200;2023-05-29T10:47:55;73.80;;;2.30;;
651;SDS011;310;48.490;9.200;2023-05-29T10:53:06;72.77;;;1.87;;
651;SDS011;310;48.490;9.200;2023-05-29T10:55:37;73.20;;;2.30;;
651;SDS011;310;48.490;9.200;2023-05-29T10:58:07;73.07;;;2.40;;
651;SDS011;310;48.490;9.200;2023-05-29T11:00:45;71.97;;;1.90;;
651;SDS011;310;48.490;9.200;2023-05-29T11:03:15;72.27;;;2.20;;
651;SDS011;310;48.490;9.200;2023-05-29T11:11:13;71.47;;;1.97;;
651;SDS011;310;48.490;9.200;2023-05-29T11:13:40;72.60;;;2.60;;
651;SDS011;310;48.490;9.200;2023-05-29T11:16:13;75.33;;;2.47;;
651;SDS011;310;48.490;9.200;2023-05-29T11:18:45;72.17;;;2.23;;
651;SDS011;310;48.490;9.200;2023-05-29T11:21:15;71.20;;;2.10;;
651;SDS011;310;48.490;9.200;2023-05-29T11:23:53;70.90;;;1.90;;
651;SDS011;310;48.490;9.200;2023-05-29T11:26:19;71.20;;;2.30;;
651;SDS011;310;48.490;9.200;2023-05-29T11:28:47;71.87;;;2.23;;
651;SDS011;310;48.490;9.200;2023-05-29T11:31:13;71.30;;;2.10;;
651;SDS011;310;48.490;9.200;2023-05-29T11:33:42;71.17;;;2.13;;
651;SDS011;310;48.490;9.200;2023-05-29T11:36:14;70.50;;;2.00;;
651;SDS011;310;48.490;9.200;2023-05-29T11:38:39;69.90;;;1.93;;
651;SDS011;310;48.490;9.200;2023-05-29T11:41:05;69.70;;;2.10;;
651;SDS011;310;48.490;9.200;2023-05-29T11:43:31;69.20;;;1.90;;
651;SDS011;310;48.490;9.200;2023-05-29T11:45:58;68.30;;;1.90;;
651;SDS011;310;48.490;9.200;2023-05-29T11:48:23;67.90;;;2.00;;
651;SDS011;310;48.490;9.200;2023-05-29T11:50:49;67.07;;;1.70;;
651;SDS011;310;48.490;9.200;2023-05-29T11:53:15;66.00;;;1.80;;
651;SDS011;310;48.490;9.200;2023-05-29T11:55:41;65.90;;;2.00;;
651;SDS011;310;48.490;9.200;2023-05-29T11:58:06;65.17;;;1.60;;
651;SDS011;310;48.490;9.200;2023-05-29T12:00:35;65.33;;;2.20;;
651;SDS011;310;48.490;9.200;2023-05-29T12:03:02;65.00;;;2.00;;
651;SDS011;310;48.490;9.200;2023-05-29T12:05:30;64.17;;;2.00;;
651;SDS011;310;48.490;9.200;2023-05-29T12:07:57;63.47;;;1.70;;
651;SDS011;310;48.490;9.200;2023-05-29T12:10:26;64.30;;;2.37;;
651;SDS011;310;48.490;9.200;2023-05-29T12:12:53;63.40;;;1.83;;
651;SDS011;310;48.490;9.200;2023-05-29T12:15:20;62.20;;;1.70;;
651;SDS011;310;48.490;9.200;2023-05-29T12:17:48;62.00;;;1.67;;
651;SDS011;310;48.490;9.200;2023-05-29T12:20:15;61.40;;;1.70;;
651;SDS011;310;48.490;9.200;2023-05-29T12:22:42;61.37;;;1.70;;
651;SDS011;310;48.490;9.200;2023-05-29T12:25:16;60.77;;;1.83;;
651;SDS011;310;48.490;9.200;2023-05-29T12:27:44;60.50;;;1.80;;
651;SDS011;310;48.490;9.200;2023-05-29T12:32:45;60.10;;;1.80;;
651;SDS011;310;48.490;9.200;2023-05-29T12:42:45;58.40;;;1.67;;
651;SDS011;310;48.490;9.200;2023-05-29T12:45:19;58.30;;;1.53;;
651;SDS011;310;48.490;9.200;2023-05-29T12:47:45;59.40;;;1.87;;
651;SDS011;310;48.490;9.200;2023-05-29T12:50:18;58.80;;;1.53;;
651;SDS011;310;48.490;9.200;2023-05-29T12:52:55;59.40;;;2.10;;
651;SDS011;310;48.490;9.200;2023-05-29T12:55:20;59.30;;;1.87;;
651;SDS011;310;48.490;9.200;2023-05-29T12:57:46;58.90;;;1.70;;
651;SDS011;310;48.490;9.200;2023-05-29T13:00:12;58.80;;;1.90;;
651;SDS011;310;48.490;9.200;2023-05-29T13:02:38;59.17;;;1.70;;
651;SDS011;310;48.490;9.200;2023-05-29T13:05:04;58.83;;;1.70;;
651;SDS011;310;48.490;9.200;2023-05-29T13:07:31;59.20;;;1.70;;
651;SDS011;310;48.490;9.200;2023-05-29T13:09:57;59.20;;;1.77;;
651;SDS011;310;48.490;9.200;2023-05-29T13:12:22;61.20;;;2.10;;
651;SDS011;310;48.490;9.200;2023-05-29T13:14:48;59.80;;;2.00;;
651;SDS011;310;48.490;9.200;2023-05-29T13:17:14;59.20;;;1.73;;
651;SDS011;310;48.490;9.200;2023-05-29T13:19:39;59.70;;;1.90;;
651;SDS011;310;48.490;9.200;2023-05-29T13:22:05;60.00;;;1.90;;
651;SDS011;310;48.490;9.200;2023-05-29T13:24:30;60.10;;;1.90;;
651;SDS011;310;48.490;9.200;2023-05-29T13:26:56;59.77;;;1.90;;
651;SDS011;310;48.490;9.200;2023-05-29T13:29:21;59.90;;;1.93;;
651;SDS011;310;48.490;9.200;2023-05-29T13:31:47;59.30;;;1.70;;
651;SDS011;310;48.490;9.200;2023-05-29T13:34:13;61.13;;;1.90;;
651;SDS011;310;48.490;9.200;2023-05-29T13:36:38;59.57;;;1.90;;
651;SDS011;310;48.490;9.200;2023-05-29T13:39:04;59.50;;;1.83;;
651;SDS011;310;48.490;9.200;2023-05-29T13:41:31;63.30;;;2.57;;
651;SDS011;310;48.490;9.200;2023-05-29T13:43:57;59.60;;;1.80;;
651;SDS011;310;48.490;9.200;2023-05-29T13:46:22;59.57;;;1.80;;
651;SDS011;310;48.490;9.200;2023-05-29T13:48:48;59.67;;;2.00;;
651;SDS011;310;48.490;9.200;2023-05-29T13:51:14;60.03;;;1.90;;
651;SDS011;310;48.490;9.200;2023-05-29T13:53:39;59.43;;;1.70;;
651;SDS011;310;48.490;9.200;2023-05-29T13:56:05;60.10;;;2.17;;
651;SDS011;310;48.490;9.200;2023-05-29T13:58:31;59.60;;;1.80;;
651;SDS011;310;48.490;9.200;2023-05-29T14:00:56;60.07;;;1.80;;
651;SDS011;310;48.490;9.200;2023-05-29T14:03:22;59.87;;;1.90;;
651;SDS011;310;48.490;9.200;2023-05-29T14:05:50;60.10;;;2.10;;
651;SDS011;310;48.490;9.200;2023-05-29T14:08:15;59.97;;;1.83;;
651;SDS011;310;48.490;9.200;2023-05-29T14:10:41;60.40;;;1.80;;
651;SDS011;310;48.490;9.200;2023-05-29T14:13:06;61.07;;;2.20;;
651;SDS011;310;48.490;9.200;2023-05-29T14:15:32;60.40;;;1.83;;
651;SDS011;310;48.490;9.200;2023-05-29T14:17:58;60.60;;;1.57;;
651;SDS011;310;48.490;9.200;2023-05-29T14:20:23;60.83;;;1.90;;
651;SDS011;310;48.490;9.200;2023-05-29T14:22:49;60.43;;;1.90;;
651;SDS011;310;48.490;9.200;2023-05-29T14:25:15;61.20;;;2.07;;
651;SDS011;310;48.490;9.200;2023-05-29T14:27:40;60.50;;;1.90;;
651;SDS011;310;48.490;9.200;2023-05-29T14:30:06;60.40;;;2.03;;
651;SDS011;310;48.490;9.200;2023-05-29T14:32:32;60.67;;;2.17;;
651;SDS011;310;48.490;9.200;2023-05-29T14:34:58;59.80;;;1.67;;
651;SDS011;310;48.490;9.200;2023-05-29T14:37:23;60.33;;;2.00;;
651;SDS011;310;48.490;9.200;2023-05-29T14:39:49;59.90;;;1.80;;
651;SDS011;310;48.490;9.200;2023-05-29T14:42:15;59.87;;;1.90;;
651;SDS011;310;48.490;9.200;2023-05-29T14:44:41;60.00;;;1.90;;
651;SDS011;310;48.490;9.200;2023-05-29T14:47:06;59.67;;;1.80;;
651;SDS011;310;48.490;9.200;2023-05-29T14:49:32;59.70;;;1.80;;
651;SDS011;310;48.490;9.200;2023-05-29T14:51:59;60.47;;;2.03;;
651;SDS011;310;48.490;9.200;2023-05-29T14:54:24;59.97;;;1.70;;
651;SDS011;310;48.490;9.200;2023-05-29T14:56:50;59.80;;;1.80;;
651;SDS011;310;48.490;9.200;2023-05-29T14:59:16;60.30;;;2.00;;
651;SDS011;310;48.490;9.200;2023-05-29T15:01:42;62.17;;;2.30;;
651;SDS011;310;48.490;9.200;2023-05-29T15:04:07;60.47;;;2.07;;
651;SDS011;310;48.490;9.200;2023-05-29T15:06:33;60.33;;;2.07;;
651;SDS011;310;48.490;9.200;2023-05-29T15:08:58;61.33;;;2.20;;
651;SDS011;310;48.490;9.200;2023-05-29T15:11:26;60.60;;;1.90;;
651;SDS011;310;48.490;9.200;2023-05-29T15:13:54;60.40;;;2.10;;
651;SDS011;310;48.490;9.200;2023-05-29T15:16:19;60.73;;;2.00;;
651;SDS011;310;48.490;9.200;2023-05-29T15:18:45;60.57;;;2.03;;
651;SDS011;310;48.490;9.200;2023-05-29T15:21:10;60.63;;;2.20;;
651;SDS011;310;48.490;9.200;2023-05-29T15:23:36;60.87;;;2.03;;
651;SDS011;310;48.490;9.200;2023-05-29T15:26:03;61.90;;;2.07;;
651;SDS011;310;48.490;9.200;2023-05-29T15:28:30;60.47;;;1.80;;
651;SDS011;310;48.490;9.200;2023-05-29T15:30:56;60.57;;;1.90;;
651;SDS011;310;48.490;9.200;2023-05-29T15:33:21;60.90;;;1.90;;
651;SDS011;310;48.490;9.200;2023-05-29T15:35:47;61.40;;;1.90;;
651;SDS011;310;48.490;9.200;2023-05-29T15:38:14;61.10;;;2.20;;
651;SDS011;310;48.490;9.200;2023-05-29T15:40:41;60.30;;;1.73;;
651;SDS011;310;48.490;9.200;2023-05-29T15:43:07;61.07;;;2.00;;
651;SDS011;310;48.490;9.200;2023-05-29T15:45:33;60.90;;;2.10;;
651;SDS011;310;48.490;9.200;2023-05-29T15:47:59;63.30;;;2.13;;
651;SDS011;310;48.490;9.200;2023-05-29T15:50:24;60.50;;;1.80;;
651;SDS011;310;48.490;9.200;2023-05-29T15:52:50;60.57;;;1.93;;
651;SDS011;310;48.490;9.200;2023-05-29T15:55:16;61.27;;;2.20;;
651;SDS011;310;48.490;9.200;2023-05-29T15:57:42;60.70;;;1.90;;
651;SDS011;310;48.490;9.200;2023-05-29T16:00:08;61.10;;;2.07;;